createdAt,value
2018-12-09T00:00:53.310Z,162.30
2018-12-09T00:15:52.242Z,167.45
2018-12-09T00:30:51.136Z,149.57
2018-12-09T00:45:54.053Z,134.90
2018-12-09T01:00:50.419Z,79.72
2018-12-09T01:15:50.890Z,32.05
2018-12-09T01:30:51.324Z,13.80
2018-12-09T01:45:51.657Z,6.70
2018-12-09T02:00:51.581Z,6.53
2018-12-09T02:15:51.102Z,9.75
2018-12-09T02:30:52.328Z,6.47
2018-12-09T02:45:51.788Z,5.05
2018-12-09T03:00:51.284Z,4.22
2018-12-09T03:15:51.206Z,2.80
2018-12-09T03:30:51.575Z,3.65
2018-12-09T03:45:51.555Z,4.03
2018-12-09T04:00:51.964Z,3.50
2018-12-09T04:15:51.366Z,10.53
2018-12-09T04:30:50.759Z,9.13
2018-12-09T04:45:53.700Z,8.05
2018-12-09T05:00:55.778Z,7.35
2018-12-09T05:15:51.566Z,7.70
2018-12-09T05:30:52.441Z,6.05
2018-12-09T05:45:51.235Z,4.85
2018-12-09T06:00:50.642Z,4.80
2018-12-09T06:15:53.573Z,5.30
2018-12-09T06:30:50.386Z,6.05
2018-12-09T06:45:51.484Z,6.83
2018-12-09T07:00:50.650Z,7.55
2018-12-09T07:15:50.600Z,9.23
2018-12-09T07:30:51.174Z,7.15
2018-12-09T07:45:51.313Z,7.03
2018-12-09T08:00:51.111Z,6.70
2018-12-09T08:15:50.445Z,7.67
2018-12-09T14:45:50.967Z,21.27
2018-12-09T15:00:50.906Z,23.55
2018-12-09T15:15:51.487Z,27.85
2018-12-09T15:30:51.726Z,33.35
2018-12-09T15:45:52.048Z,36.85
2018-12-09T16:00:56.429Z,43.45
2018-12-09T16:15:51.800Z,48.38
2018-12-09T16:30:53.292Z,41.42
2018-12-09T16:45:50.588Z,33.50
2018-12-09T17:00:51.150Z,36.83
2018-12-09T17:15:54.036Z,51.10
2018-12-09T17:30:53.565Z,52.70
2018-12-09T17:45:51.474Z,47.65
2018-12-09T18:00:51.074Z,47.40
2018-12-09T18:15:54.727Z,50.35
2018-12-09T18:30:54.590Z,54.40
2018-12-09T18:45:57.234Z,50.17
2018-12-09T19:00:51.327Z,55.58
2018-12-09T19:15:55.097Z,70.75
2018-12-09T19:30:54.228Z,63.85
2018-12-09T19:45:51.484Z,55.48
2018-12-09T20:00:53.959Z,50.50
2018-12-09T20:15:54.848Z,47.78
2018-12-09T20:30:53.372Z,44.08
2018-12-09T20:45:51.965Z,35.92
2018-12-09T21:00:51.575Z,36.10
2018-12-09T21:15:52.346Z,33.75
2018-12-09T21:30:53.373Z,35.60
2018-12-09T21:45:50.699Z,32.98
2018-12-09T22:00:50.686Z,27.73
2018-12-09T22:15:51.121Z,25.05
2018-12-09T22:30:56.875Z,23.45
2018-12-09T22:45:54.196Z,23.75
2018-12-09T23:00:55.602Z,23.47
2018-12-09T23:15:50.399Z,20.20
2018-12-09T23:30:52.263Z,20.08
2018-12-09T23:45:52.643Z,20.70
